Time;durP1;ratioP1;P1;durP2;ratioP2;P2;SDS_P1;SDS_P2;PMS_P1;PMS_P2;Temp;Humidity;BMP_temperature;BMP_pressure;BME280_temperature;BME280_humidity;BME280_pressure;Samples;Min_cycle;Max_cycle;Signal;HPM_P1;HPM_P2
2022/10/13 00:01:22;;;;;;;7.20;3.90;;;9.30;1.00;;;;;;5072230;28;20174;-72
2022/10/13 00:03:48;;;;;;;5.00;3.90;;;9.40;1.00;;;;;;5071867;28;20652;-72
2022/10/13 00:06:17;;;;;;;7.80;4.83;;;9.40;1.00;;;;;;5072693;28;20586;-73
2022/10/13 00:08:44;;;;;;;8.43;4.40;;;9.40;1.00;;;;;;5071968;28;20800;-72
2022/10/13 00:11:13;;;;;;;12.10;3.63;;;9.40;1.00;;;;;;5072194;28;20429;-73
2022/10/13 00:13:39;;;;;;;9.03;3.40;;;9.40;1.00;;;;;;5072131;28;20423;-75
2022/10/13 00:16:05;;;;;;;8.60;4.07;;;9.40;1.00;;;;;;5073153;28;20440;-70
2022/10/13 00:18:31;;;;;;;5.33;3.40;;;9.50;1.00;;;;;;5073177;28;20413;-70
2022/10/13 00:20:56;;;;;;;10.10;4.40;;;9.50;1.00;;;;;;5072304;28;20506;-70
2022/10/13 00:23:23;;;;;;;7.53;4.17;;;9.50;1.00;;;;;;5072430;28;20284;-71
2022/10/13 00:25:49;;;;;;;6.70;4.03;;;9.40;1.00;;;;;;5072472;28;20268;-70
2022/10/13 00:28:18;;;;;;;5.90;3.70;;;9.50;1.00;;;;;;5072986;28;20420;-73
2022/10/13 00:30:45;;;;;;;5.37;4.03;;;9.50;1.00;;;;;;5073164;28;20447;-73
2022/10/13 00:33:12;;;;;;;5.90;3.80;;;9.60;1.00;;;;;;5071638;28;20419;-73
2022/10/13 00:35:42;;;;;;;5.20;3.80;;;9.50;1.00;;;;;;5065934;28;20444;-70
2022/10/13 00:38:09;;;;;;;6.53;3.53;;;9.60;1.00;;;;;;5071211;28;20426;-70
2022/10/13 00:40:43;;;;;;;9.80;3.90;;;9.50;1.00;;;;;;5071905;28;20729;-73
2022/10/13 00:43:18;;;;;;;5.00;3.47;;;9.50;1.00;;;;;;5071368;28;20446;-73
2022/10/13 00:45:45;;;;;;;7.73;3.70;;;9.50;1.00;;;;;;5075746;28;20892;-73
2022/10/13 00:48:11;;;;;;;8.53;3.83;;;9.50;1.00;;;;;;5075957;28;20459;-74
2022/10/13 00:50:40;;;;;;;8.90;4.30;;;9.60;1.00;;;;;;5076985;28;20428;-73
2022/10/13 00:53:08;;;;;;;3.60;3.30;;;9.60;1.00;;;;;;5076944;28;20391;-70
2022/10/13 00:55:37;;;;;;;9.10;4.67;;;9.60;1.00;;;;;;5075703;28;20471;-73
2022/10/13 00:58:06;;;;;;;5.33;3.70;;;9.60;1.00;;;;;;5075982;28;20375;-70
2022/10/13 01:00:33;;;;;;;4.40;3.03;;;9.60;1.00;;;;;;5076402;28;20454;-73
2022/10/13 01:03:00;;;;;;;5.27;3.13;;;9.60;1.00;;;;;;5075846;28;20766;-73
2022/10/13 01:05:26;;;;;;;4.03;3.70;;;9.50;1.00;;;;;;5075502;28;20568;-73
2022/10/13 01:07:53;;;;;;;5.10;4.00;;;9.50;1.00;;;;;;5076975;28;20487;-71
2022/10/13 01:11:14;;;;;;;5.10;4.10;;;9.40;1.00;;;;;;5076339;28;20646;-70
2022/10/13 01:13:56;;;;;;;7.40;3.83;;;9.40;1.00;;;;;;4994225;28;20818;-73
2022/10/13 01:16:38;;;;;;;6.63;4.00;;;9.50;1.00;;;;;;5048669;28;20441;-73
2022/10/13 01:19:22;;;;;;;6.00;3.80;;;9.40;1.00;;;;;;5067675;28;20395;-73
2022/10/13 01:22:25;;;;;;;6.10;4.27;;;9.40;1.00;;;;;;5076458;28;20382;-71
2022/10/13 01:24:51;;;;;;;4.07;3.67;;;9.40;1.00;;;;;;5075217;28;20485;-73
2022/10/13 01:27:56;;;;;;;8.57;3.83;;;9.50;1.00;;;;;;5076474;28;20872;-70
2022/10/13 01:30:22;;;;;;;3.97;3.67;;;9.50;1.00;;;;;;5074931;28;20190;-71
2022/10/13 01:32:57;;;;;;;9.53;4.30;;;9.40;1.00;;;;;;5071833;28;20403;-72
2022/10/13 01:35:58;;;;;;;6.50;3.83;;;9.50;1.00;;;;;;5064824;28;20431;-73
2022/10/13 01:38:53;;;;;;;5.23;4.30;;;9.50;1.00;;;;;;5071834;28;20428;-71
2022/10/13 01:41:44;;;;;;;4.73;3.70;;;9.50;1.00;;;;;;5066487;28;20424;-73
2022/10/13 01:44:19;;;;;;;9.83;3.90;;;9.60;1.00;;;;;;5074131;28;20416;-71
2022/10/13 01:46:47;;;;;;;7.23;4.60;;;9.60;1.00;;;;;;5066606;28;20557;-72
2022/10/13 01:49:17;;;;;;;4.50;3.83;;;9.60;1.00;;;;;;5055049;28;20432;-72
2022/10/13 01:51:44;;;;;;;5.57;3.57;;;9.60;1.00;;;;;;5055871;28;20426;-71
2022/10/13 01:54:10;;;;;;;7.10;4.40;;;9.60;1.00;;;;;;5072214;28;20453;-72
2022/10/13 01:56:36;;;;;;;6.00;4.20;;;9.60;1.00;;;;;;5074723;28;20387;-71
2022/10/13 01:59:09;;;;;;;5.80;3.67;;;9.60;1.00;;;;;;5074667;28;20383;-71
2022/10/13 02:02:04;;;;;;;4.00;3.60;;;9.60;1.00;;;;;;5074956;28;20313;-72
2022/10/13 02:04:41;;;;;;;4.20;3.70;;;9.60;1.00;;;;;;5074656;28;20451;-71
2022/10/13 02:07:39;;;;;;;5.53;3.37;;;9.50;1.00;;;;;;5075355;28;20417;-73
2022/10/13 02:10:18;;;;;;;5.00;3.57;;;9.50;1.00;;;;;;5046898;28;20439;-71
2022/10/13 02:12:52;;;;;;;4.27;3.90;;;9.40;1.00;;;;;;5062716;28;20440;-72
2022/10/13 02:15:23;;;;;;;4.70;3.57;;;9.30;1.00;;;;;;5072617;28;20942;-73
2022/10/13 02:17:50;;;;;;;13.53;3.90;;;9.30;1.00;;;;;;5075229;28;20426;-71
2022/10/13 02:20:19;;;;;;;5.40;4.37;;;9.20;1.00;;;;;;5075495;28;20401;-73
2022/10/13 02:22:46;;;;;;;8.30;4.10;;;9.10;1.00;;;;;;5075230;28;20545;-71
2022/10/13 02:25:12;;;;;;;4.03;3.73;;;9.10;1.00;;;;;;5074390;28;20979;-71
2022/10/13 02:27:38;;;;;;;6.60;3.93;;;9.10;1.00;;;;;;5074694;28;20409;-71
2022/10/13 02:30:04;;;;;;;4.13;3.60;;;9.00;1.00;;;;;;5074172;28;20256;-73
2022/10/13 02:32:30;;;;;;;4.83;4.20;;;9.00;1.00;;;;;;5075044;28;20409;-73
2022/10/13 02:34:56;;;;;;;5.30;3.67;;;8.90;1.00;;;;;;5074215;28;20419;-73
2022/10/13 02:37:24;;;;;;;4.90;4.00;;;8.80;1.00;;;;;;5074927;28;20761;-70
2022/10/13 02:39:50;;;;;;;7.40;3.70;;;8.80;1.00;;;;;;5075027;28;20629;-70
2022/10/13 02:42:16;;;;;;;6.20;4.50;;;8.70;1.00;;;;;;5074874;28;20413;-73
2022/10/13 02:44:41;;;;;;;5.63;3.83;;;8.70;1.00;;;;;;5060196;28;20898;-72
2022/10/13 02:47:07;;;;;;;5.97;3.97;;;8.70;1.00;;;;;;5054715;28;20200;-70
2022/10/13 02:49:32;;;;;;;7.53;3.67;;;8.60;1.00;;;;;;5055984;28;20163;-70
2022/10/13 02:51:58;;;;;;;3.97;3.40;;;8.50;1.00;;;;;;5074456;28;20176;-73
2022/10/13 02:54:24;;;;;;;4.70;4.10;;;8.50;1.00;;;;;;5072902;28;20180;-73
2022/10/13 02:56:49;;;;;;;6.53;4.50;;;8.40;1.00;;;;;;5074481;28;20543;-71
2022/10/13 02:59:15;;;;;;;9.27;4.00;;;8.30;1.00;;;;;;5075009;28;20173;-70
2022/10/13 03:01:43;;;;;;;4.33;3.93;;;8.30;1.00;;;;;;5073468;28;20184;-70
2022/10/13 03:04:09;;;;;;;8.23;5.10;;;8.20;1.00;;;;;;5073168;28;20183;-70
2022/10/13 03:06:35;;;;;;;5.03;4.33;;;8.10;1.00;;;;;;5074223;28;20443;-70
2022/10/13 03:09:00;;;;;;;8.10;5.10;;;8.10;1.00;;;;;;5074360;28;20374;-72
2022/10/13 03:11:26;;;;;;;6.47;4.33;;;8.10;1.00;;;;;;5074202;28;20213;-70
2022/10/13 03:13:54;;;;;;;5.03;4.57;;;8.20;1.00;;;;;;5073641;28;20604;-70
2022/10/13 03:16:19;;;;;;;9.43;4.73;;;8.20;1.00;;;;;;5072196;28;20475;-71
2022/10/13 03:18:45;;;;;;;6.20;5.07;;;8.30;1.00;;;;;;5074183;28;20446;-70
2022/10/13 03:21:11;;;;;;;10.13;5.20;;;8.30;1.00;;;;;;5073740;28;20179;-70
2022/10/13 03:23:36;;;;;;;6.87;4.60;;;8.40;1.00;;;;;;5072416;28;20641;-78
2022/10/13 03:26:03;;;;;;;6.00;4.53;;;8.40;1.00;;;;;;5073720;28;20207;-70
2022/10/13 03:28:29;;;;;;;11.33;4.73;;;8.50;1.00;;;;;;5074089;28;20164;-71
2022/10/13 03:31:07;;;;;;;6.97;4.53;;;8.50;1.00;;;;;;5072109;28;20468;-70
2022/10/13 03:33:32;;;;;;;8.20;5.50;;;8.60;1.00;;;;;;5073859;28;20388;-70
2022/10/13 03:36:03;;;;;;;4.27;3.87;;;8.60;1.00;;;;;;5072767;28;20412;-73
2022/10/13 03:38:30;;;;;;;9.37;5.60;;;8.70;1.00;;;;;;5073447;28;20176;-72
2022/10/13 03:40:56;;;;;;;11.83;5.50;;;8.70;1.00;;;;;;5073564;28;20777;-70
2022/10/13 03:43:22;;;;;;;7.03;5.00;;;8.70;1.00;;;;;;5072743;28;20439;-73
2022/10/13 03:45:56;;;;;;;8.77;4.60;;;8.70;1.00;;;;;;5071497;28;20197;-70
2022/10/13 03:48:22;;;;;;;7.00;4.90;;;8.80;1.00;;;;;;5073798;28;20406;-72
2022/10/13 03:50:47;;;;;;;13.43;5.43;;;8.80;1.00;;;;;;5073068;28;20451;-70
2022/10/13 03:53:13;;;;;;;5.87;5.20;;;8.90;1.00;;;;;;5073853;28;20408;-73
2022/10/13 03:55:39;;;;;;;12.53;5.80;;;8.90;1.00;;;;;;5072167;28;20197;-73
2022/10/13 03:58:04;;;;;;;6.47;4.90;;;9.00;1.00;;;;;;5072136;28;20212;-72
2022/10/13 04:00:30;;;;;;;5.87;5.27;;;9.00;1.00;;;;;;5073489;28;20260;-71
2022/10/13 04:02:55;;;;;;;10.53;5.30;;;9.10;1.00;;;;;;5073414;28;20193;-72
2022/10/13 04:05:21;;;;;;;7.60;4.27;;;9.10;1.00;;;;;;5072250;28;20235;-73
2022/10/13 04:07:47;;;;;;;5.47;3.97;;;9.10;1.00;;;;;;5072596;28;20212;-72
2022/10/13 04:10:12;;;;;;;14.17;4.93;;;9.10;1.00;;;;;;5073408;28;20619;-70
2022/10/13 04:12:38;;;;;;;5.83;5.23;;;9.10;1.00;;;;;;5065654;28;20226;-72
2022/10/13 04:15:04;;;;;;;4.80;4.13;;;9.20;1.00;;;;;;5070646;28;20593;-70
2022/10/13 04:17:30;;;;;;;9.30;4.80;;;9.20;1.00;;;;;;5073285;28;20206;-70
2022/10/13 04:19:55;;;;;;;8.60;5.63;;;9.20;1.00;;;;;;5071564;28;20907;-73
2022/10/13 04:22:21;;;;;;;11.33;5.50;;;9.20;1.00;;;;;;5073245;28;20181;-70
2022/10/13 04:24:47;;;;;;;5.43;4.87;;;9.20;1.00;;;;;;5071448;28;20182;-71
2022/10/13 04:27:15;;;;;;;7.00;5.93;;;9.20;1.00;;;;;;5073065;28;20185;-73
2022/10/13 04:29:41;;;;;;;7.43;5.60;;;9.20;1.00;;;;;;5073195;28;20181;-71
2022/10/13 04:32:06;;;;;;;7.00;4.57;;;9.20;1.00;;;;;;5073028;28;20773;-72
2022/10/13 04:34:32;;;;;;;11.97;5.67;;;9.20;1.00;;;;;;5071953;28;20184;-73
2022/10/13 04:36:58;;;;;;;6.50;5.27;;;9.20;1.00;;;;;;5071853;28;20212;-73
2022/10/13 04:39:23;;;;;;;8.10;5.10;;;9.20;1.00;;;;;;5070909;28;20170;-73
2022/10/13 04:41:49;;;;;;;7.30;5.00;;;9.10;1.00;;;;;;5061844;28;20238;-71
2022/10/13 04:44:15;;;;;;;13.67;5.60;;;9.20;1.00;;;;;;5072353;28;20176;-72
2022/10/13 04:46:40;;;;;;;6.03;5.47;;;9.20;1.00;;;;;;5068346;28;20193;-71
2022/10/13 04:49:06;;;;;;;5.80;5.17;;;9.20;1.00;;;;;;5051963;28;20170;-73
2022/10/13 04:51:32;;;;;;;17.93;6.10;;;9.20;1.00;;;;;;5062458;28;20203;-71
2022/10/13 04:53:59;;;;;;;5.93;5.27;;;9.20;1.00;;;;;;5070616;28;20646;-71
2022/10/13 04:56:26;;;;;;;6.13;4.97;;;9.20;1.00;;;;;;5072016;28;20185;-75
2022/10/13 04:58:52;;;;;;;4.93;4.50;;;9.20;1.00;;;;;;5053026;28;20417;-73
2022/10/13 05:01:20;;;;;;;9.57;5.67;;;9.20;1.00;;;;;;5072724;28;20462;-71
2022/10/13 05:03:46;;;;;;;5.50;5.00;;;9.20;1.00;;;;;;5072123;28;20407;-70
2022/10/13 05:06:16;;;;;;;5.60;5.20;;;9.20;1.00;;;;;;5072650;28;20435;-73
2022/10/13 05:08:42;;;;;;;8.80;6.37;;;9.20;1.00;;;;;;5071604;28;20189;-71
2022/10/13 05:11:08;;;;;;;7.40;6.13;;;9.20;1.00;;;;;;5072690;28;20447;-72
2022/10/13 05:13:34;;;;;;;11.93;6.00;;;9.20;1.00;;;;;;5072700;28;20171;-70
2022/10/13 05:16:04;;;;;;;8.87;5.63;;;9.20;1.00;;;;;;5071012;28;20226;-72
2022/10/13 05:18:29;;;;;;;8.23;6.57;;;9.10;1.00;;;;;;5072827;28;20430;-72
2022/10/13 05:20:55;;;;;;;6.53;5.53;;;9.10;1.00;;;;;;5072654;28;20452;-72
2022/10/13 05:23:21;;;;;;;7.13;5.37;;;9.10;1.00;;;;;;5071713;28;20191;-72
2022/10/13 05:25:46;;;;;;;12.67;6.73;;;9.10;1.00;;;;;;5071516;28;20194;-71
2022/10/13 05:28:12;;;;;;;11.47;5.83;;;9.20;1.00;;;;;;5072452;28;20534;-73
2022/10/13 05:30:38;;;;;;;6.40;5.60;;;9.20;1.00;;;;;;5073742;28;20208;-70
2022/10/13 05:33:04;;;;;;;12.10;5.10;;;9.20;1.00;;;;;;5075110;28;20416;-71
2022/10/13 05:35:29;;;;;;;10.30;6.50;;;9.20;1.00;;;;;;5072839;28;20207;-74
2022/10/13 05:37:55;;;;;;;9.13;5.50;;;9.10;1.00;;;;;;5070789;28;20393;-71
2022/10/13 05:40:21;;;;;;;6.23;5.37;;;9.10;1.00;;;;;;5066614;28;20188;-71
2022/10/13 05:42:49;;;;;;;11.30;5.90;;;9.10;1.00;;;;;;5076228;28;20172;-72
2022/10/13 05:45:15;;;;;;;7.43;6.03;;;9.10;1.00;;;;;;5073964;28;20563;-77
2022/10/13 05:47:41;;;;;;;8.80;5.93;;;9.10;1.00;;;;;;5073240;28;20409;-74
2022/10/13 05:50:07;;;;;;;8.70;6.70;;;9.10;1.00;;;;;;5068137;28;20452;-70
2022/10/13 05:52:33;;;;;;;8.07;6.07;;;9.10;1.00;;;;;;5056139;28;20578;-69
2022/10/13 05:55:01;;;;;;;7.47;5.90;;;9.10;1.00;;;;;;5063518;28;20425;-69
2022/10/13 05:57:35;;;;;;;7.07;6.10;;;9.10;1.00;;;;;;5081048;28;20398;-72
2022/10/13 06:00:08;;;;;;;11.63;7.07;;;9.10;1.00;;;;;;5062869;28;20920;-72
2022/10/13 06:02:41;;;;;;;6.70;6.00;;;9.10;1.00;;;;;;5075522;28;20432;-70
2022/10/13 06:05:15;;;;;;;11.00;7.30;;;9.10;1.00;;;;;;5074071;28;20443;-72
2022/10/13 06:07:41;;;;;;;10.17;6.50;;;9.10;1.00;;;;;;5075830;28;20390;-72
2022/10/13 06:10:08;;;;;;;8.50;7.07;;;9.10;1.00;;;;;;5075412;28;20954;-70
2022/10/13 06:12:34;;;;;;;7.80;7.00;;;9.20;1.00;;;;;;5074729;28;20423;-70
2022/10/13 06:14:59;;;;;;;10.00;6.73;;;9.20;1.00;;;;;;5074461;28;20890;-70
2022/10/13 06:17:25;;;;;;;10.70;7.63;;;9.20;1.00;;;;;;5075674;28;20182;-73
2022/10/13 06:19:51;;;;;;;9.27;7.63;;;9.20;1.00;;;;;;5075230;28;20177;-71
2022/10/13 06:22:16;;;;;;;12.00;7.90;;;9.30;1.00;;;;;;5075598;28;20178;-71
2022/10/13 06:24:42;;;;;;;15.30;7.80;;;9.20;1.00;;;;;;5072994;28;20185;-72
2022/10/13 06:27:09;;;;;;;7.33;6.63;;;9.20;1.00;;;;;;5075204;28;20208;-71
2022/10/13 06:29:34;;;;;;;15.63;7.90;;;9.30;1.00;;;;;;5065110;28;20378;-71
2022/10/13 06:32:00;;;;;;;12.80;7.20;;;9.30;1.00;;;;;;5073492;28;20507;-73
2022/10/13 06:34:26;;;;;;;10.67;7.33;;;9.40;1.00;;;;;;5074100;28;20185;-71
2022/10/13 06:36:52;;;;;;;7.17;6.47;;;9.50;1.00;;;;;;5074993;28;20324;-73
2022/10/13 06:39:17;;;;;;;12.43;7.87;;;9.50;1.00;;;;;;5074845;28;20193;-73
2022/10/13 06:41:43;;;;;;;10.57;7.70;;;9.60;1.00;;;;;;5073929;28;20420;-74
2022/10/13 06:44:10;;;;;;;12.20;7.63;;;9.60;1.00;;;;;;5059013;28;20190;-71
2022/10/13 06:46:35;;;;;;;16.43;8.47;;;9.60;1.00;;;;;;5071594;28;20342;-74
2022/10/13 06:49:01;;;;;;;11.70;7.30;;;9.60;1.00;;;;;;5073592;28;20519;-71
2022/10/13 06:51:27;;;;;;;11.70;8.00;;;9.70;1.00;;;;;;5074766;28;20275;-69
2022/10/13 06:53:55;;;;;;;9.00;7.10;;;9.70;1.00;;;;;;5073882;28;20497;-71
2022/10/13 06:56:22;;;;;;;12.07;8.40;;;9.80;1.00;;;;;;5074613;28;20197;-71
2022/10/13 06:58:47;;;;;;;10.97;7.73;;;9.80;1.00;;;;;;5073278;28;20432;-71
2022/10/13 07:01:13;;;;;;;15.80;8.40;;;9.80;1.00;;;;;;5074821;28;20383;-71
2022/10/13 07:03:39;;;;;;;11.07;7.30;;;9.80;1.00;;;;;;5073762;28;20720;-72
2022/10/13 07:06:06;;;;;;;10.37;8.10;;;9.80;1.00;;;;;;5074592;28;20432;-69
2022/10/13 07:08:32;;;;;;;12.57;8.87;;;9.90;1.00;;;;;;5074575;28;20413;-73
2022/10/13 07:10:58;;;;;;;11.77;7.33;;;9.90;1.00;;;;;;5060486;28;20522;-71
2022/10/13 07:13:24;;;;;;;9.10;8.10;;;9.90;1.00;;;;;;5054477;28;20383;-73
2022/10/13 07:15:50;;;;;;;17.70;7.87;;;9.90;1.00;;;;;;5053443;28;20206;-70
2022/10/13 07:18:16;;;;;;;13.03;7.90;;;10.00;1.00;;;;;;5054226;28;20407;-71
2022/10/13 07:20:41;;;;;;;9.90;8.20;;;10.00;1.00;;;;;;5054402;28;20167;-68
2022/10/13 07:23:07;;;;;;;10.10;6.50;;;10.00;1.00;;;;;;5054351;28;20536;-71
2022/10/13 07:25:33;;;;;;;12.03;8.00;;;10.00;1.00;;;;;;5064766;28;20213;-71
2022/10/13 07:27:59;;;;;;;10.67;8.30;;;10.10;1.00;;;;;;5074228;28;20404;-70
2022/10/13 07:30:25;;;;;;;11.67;7.87;;;10.20;1.00;;;;;;5073931;28;20198;-71
2022/10/13 07:32:50;;;;;;;11.80;7.50;;;10.30;1.00;;;;;;5073622;28;20261;-69
2022/10/13 07:35:16;;;;;;;14.37;8.77;;;10.40;1.00;;;;;;5071517;28;20558;-70
2022/10/13 07:37:42;;;;;;;9.93;8.20;;;10.50;1.00;;;;;;5074016;28;20222;-68
2022/10/13 07:40:08;;;;;;;13.83;7.87;;;10.50;1.00;;;;;;5068732;28;20189;-71
2022/10/13 07:42:34;;;;;;;16.47;7.50;;;10.50;1.00;;;;;;5053770;28;20167;-71
2022/10/13 07:44:59;;;;;;;18.63;8.63;;;10.60;1.00;;;;;;5053025;28;20404;-69
2022/10/13 07:47:25;;;;;;;14.60;8.90;;;10.70;1.00;;;;;;5053942;28;20551;-68
2022/10/13 07:49:53;;;;;;;15.30;8.13;;;10.80;1.00;;;;;;5069363;28;20286;-71
2022/10/13 07:52:19;;;;;;;15.73;8.80;;;10.80;1.00;;;;;;5069709;28;20420;-68
2022/10/13 07:54:44;;;;;;;17.27;9.63;;;10.80;1.00;;;;;;5071744;28;20800;-69
2022/10/13 07:57:10;;;;;;;22.27;9.30;;;10.80;1.00;;;;;;5072668;28;20174;-71
2022/10/13 07:59:36;;;;;;;19.33;10.77;;;10.80;1.00;;;;;;5073677;28;20182;-70
2022/10/13 08:02:01;;;;;;;20.97;9.77;;;10.80;1.00;;;;;;5066637;28;20186;-70
2022/10/13 08:04:32;;;;;;;15.53;10.27;;;10.80;1.00;;;;;;5052972;28;20237;-71
2022/10/13 08:06:58;;;;;;;16.63;10.30;;;10.80;1.00;;;;;;5052887;28;20678;-71
2022/10/13 08:09:24;;;;;;;13.17;8.93;;;10.80;1.00;;;;;;5058783;28;20479;-71
2022/10/13 08:11:50;;;;;;;12.93;9.70;;;10.90;1.00;;;;;;5070690;28;20214;-68
2022/10/13 08:14:16;;;;;;;16.23;9.80;;;10.90;1.00;;;;;;5072606;28;20383;-68
2022/10/13 08:16:44;;;;;;;16.03;10.90;;;10.90;1.00;;;;;;5073312;28;20190;-71
2022/10/13 08:19:14;;;;;;;11.83;10.10;;;11.10;1.00;;;;;;5072357;28;20223;-68
2022/10/13 08:21:40;;;;;;;12.37;9.47;;;11.10;1.00;;;;;;5072395;28;20416;-70
2022/10/13 08:24:09;;;;;;;15.20;9.60;;;11.20;1.00;;;;;;5071614;28;20755;-70
2022/10/13 08:26:35;;;;;;;17.63;10.00;;;11.20;1.00;;;;;;5072576;28;20749;-71
2022/10/13 08:29:01;;;;;;;15.33;9.10;;;11.20;1.00;;;;;;5070825;28;20394;-68
2022/10/13 08:31:26;;;;;;;18.37;9.37;;;11.20;1.00;;;;;;5072995;28;20202;-67
2022/10/13 08:33:52;;;;;;;17.03;10.67;;;11.20;1.00;;;;;;5072391;28;20180;-71
2022/10/13 08:36:18;;;;;;;12.27;9.20;;;11.20;1.00;;;;;;5072766;28;20190;-71
2022/10/13 08:38:44;;;;;;;19.90;10.30;;;11.20;1.00;;;;;;5056406;28;20178;-68
2022/10/13 08:41:18;;;;;;;19.33;9.97;;;11.30;1.00;;;;;;5053142;28;20471;-71
2022/10/13 08:43:49;;;;;;;10.47;8.70;;;11.40;1.00;;;;;;5071953;28;20419;-71
2022/10/13 08:46:22;;;;;;;13.73;9.20;;;11.50;1.00;;;;;;5072934;28;20775;-72
2022/10/13 08:48:48;;;;;;;17.97;10.47;;;11.50;1.00;;;;;;5058646;28;20500;-67
2022/10/13 08:51:15;;;;;;;21.37;10.70;;;11.60;1.00;;;;;;5072932;28;20426;-68
2022/10/13 08:53:44;;;;;;;17.40;8.47;;;11.80;1.00;;;;;;5071970;28;20174;-70
2022/10/13 08:56:20;;;;;;;15.30;10.67;;;11.90;1.00;;;;;;5072765;28;20498;-67
2022/10/13 08:58:47;;;;;;;18.97;10.03;;;11.90;1.00;;;;;;5073016;28;20392;-70
2022/10/13 09:01:22;;;;;;;17.47;10.17;;;11.90;1.00;;;;;;5067227;28;20989;-68
2022/10/13 09:04:14;;;;;;;15.90;11.07;;;11.90;1.00;;;;;;5060649;28;20852;-67
2022/10/13 09:06:55;;;;;;;10.00;9.00;;;11.90;1.00;;;;;;5034219;28;20493;-67
2022/10/13 09:09:20;;;;;;;17.10;9.70;;;11.90;1.00;;;;;;5056867;28;20406;-71
2022/10/13 09:11:48;;;;;;;18.07;10.27;;;11.90;1.00;;;;;;5074231;28;20455;-71
2022/10/13 09:14:26;;;;;;;15.43;10.00;;;11.90;1.00;;;;;;5076126;28;20197;-70
2022/10/13 09:16:54;;;;;;;13.03;8.80;;;11.90;1.00;;;;;;5075163;28;20418;-68
2022/10/13 09:19:24;;;;;;;14.27;10.27;;;12.00;1.00;;;;;;5074728;28;20485;-72
2022/10/13 09:21:53;;;;;;;12.80;10.13;;;12.00;1.00;;;;;;5075829;28;20424;-71
2022/10/13 09:24:21;;;;;;;22.27;9.27;;;12.00;1.00;;;;;;5075715;28;20375;-70
2022/10/13 09:26:49;;;;;;;12.57;9.20;;;12.00;1.00;;;;;;5075427;28;20498;-71
2022/10/13 09:29:24;;;;;;;17.03;8.90;;;12.10;1.00;;;;;;5076478;28;20397;-71
2022/10/13 09:31:53;;;;;;;16.23;8.37;;;12.10;1.00;;;;;;5071006;28;20474;-67
2022/10/13 09:34:18;;;;;;;15.33;9.13;;;12.10;1.00;;;;;;5075151;28;20395;-71
2022/10/13 09:37:01;;;;;;;15.83;9.03;;;12.10;1.00;;;;;;5075626;28;20410;-71
2022/10/13 09:39:27;;;;;;;16.23;9.80;;;12.20;1.00;;;;;;5075980;28;20166;-71
2022/10/13 09:42:17;;;;;;;11.63;9.20;;;12.20;1.00;;;;;;5075893;28;20401;-67
2022/10/13 09:44:42;;;;;;;18.67;8.20;;;12.20;1.00;;;;;;5069623;28;20411;-71
2022/10/13 09:47:19;;;;;;;11.27;9.10;;;12.20;1.00;;;;;;5076108;28;20412;-67
2022/10/13 09:49:45;;;;;;;19.07;10.40;;;12.30;1.00;;;;;;5073668;28;20174;-67
2022/10/13 09:52:11;;;;;;;20.93;11.30;;;12.40;1.00;;;;;;5076329;28;20736;-67
2022/10/13 09:54:39;;;;;;;11.10;8.60;;;12.50;1.00;;;;;;5074481;28;20379;-67
2022/10/13 09:57:08;;;;;;;16.33;10.60;;;12.60;1.00;;;;;;5075580;28;20277;-67
2022/10/13 09:59:41;;;;;;;11.23;8.73;;;12.60;1.00;;;;;;5068625;28;20494;-70
2022/10/13 10:02:42;;;;;;;15.77;10.27;;;12.60;1.00;;;;;;5075341;28;20812;-71
2022/10/13 10:05:17;;;;;;;17.00;8.97;;;12.70;1.00;;;;;;5074107;28;20458;-71
2022/10/13 10:07:44;;;;;;;14.63;9.80;;;12.70;1.00;;;;;;5074560;28;20474;-68
2022/10/13 10:10:34;;;;;;;17.00;11.20;;;12.70;1.00;;;;;;5075000;28;20534;-71
2022/10/13 10:13:01;;;;;;;18.83;10.90;;;12.80;1.00;;;;;;5073292;28;20520;-69
2022/10/13 10:16:00;;;;;;;19.80;10.67;;;13.00;1.00;;;;;;5072532;28;20415;-68
2022/10/13 10:18:46;;;;;;;20.50;10.10;;;13.00;1.00;;;;;;5061791;28;20436;-70
2022/10/13 10:21:36;;;;;;;12.67;9.67;;;13.00;1.00;;;;;;5065285;28;20416;-67
2022/10/13 10:24:25;;;;;;;18.60;10.50;;;13.00;1.00;;;;;;5074634;28;20408;-71
2022/10/13 10:26:54;;;;;;;12.93;10.03;;;13.00;1.00;;;;;;5072051;28;20419;-71
2022/10/13 10:29:44;;;;;;;17.40;10.33;;;12.90;1.00;;;;;;5075479;28;20491;-67
2022/10/13 10:32:39;;;;;;;18.50;11.00;;;12.90;1.00;;;;;;5054351;28;20493;-70
2022/10/13 10:35:43;;;;;;;21.00;11.30;;;12.80;1.00;;;;;;5056178;28;20407;-69
2022/10/13 10:38:23;;;;;;;18.43;11.07;;;12.70;1.00;;;;;;5075127;28;20462;-71
2022/10/13 10:41:12;;;;;;;18.43;10.77;;;12.70;1.00;;;;;;5067338;28;20756;-71
2022/10/13 10:44:02;;;;;;;18.83;10.93;;;12.70;1.00;;;;;;5070493;28;20915;-76
2022/10/13 10:46:33;;;;;;;27.70;11.33;;;12.70;1.00;;;;;;5074521;28;20418;-72
2022/10/13 10:49:03;;;;;;;13.57;10.87;;;12.50;1.00;;;;;;5074232;28;20410;-69
2022/10/13 10:51:31;;;;;;;15.80;10.90;;;12.60;1.00;;;;;;5074470;28;20427;-68
2022/10/13 10:54:16;;;;;;;20.47;11.13;;;12.60;1.00;;;;;;5072663;28;21411;-70
2022/10/13 10:56:59;;;;;;;17.37;11.10;;;12.60;1.00;;;;;;5073550;28;20900;-70
2022/10/13 10:59:49;;;;;;;18.70;10.00;;;12.70;1.00;;;;;;5073703;28;20733;-68
2022/10/13 11:02:36;;;;;;;15.23;10.83;;;12.80;1.00;;;;;;5069625;28;20433;-70
2022/10/13 11:05:02;;;;;;;25.03;12.10;;;12.90;1.00;;;;;;5069012;28;20375;-67
2022/10/13 11:07:28;;;;;;;14.63;10.40;;;13.00;1.00;;;;;;5079056;28;20463;-70
2022/10/13 11:09:55;;;;;;;17.70;10.60;;;13.10;1.00;;;;;;5073632;28;20483;-68
2022/10/13 11:12:22;;;;;;;17.63;10.27;;;13.10;1.00;;;;;;5073196;28;20170;-70
2022/10/13 11:15:07;;;;;;;20.37;12.20;;;13.20;1.00;;;;;;5073449;28;20415;-72
2022/10/13 11:17:37;;;;;;;19.23;11.13;;;13.10;1.00;;;;;;5074163;28;20848;-71
2022/10/13 11:20:18;;;;;;;22.63;12.33;;;13.10;1.00;;;;;;5074427;28;20859;-71
2022/10/13 11:22:59;;;;;;;17.80;11.97;;;13.10;1.00;;;;;;5073754;28;20443;-69
2022/10/13 11:25:46;;;;;;;17.80;11.87;;;13.20;1.00;;;;;;5071414;28;20407;-69
2022/10/13 11:28:41;;;;;;;27.10;11.57;;;13.20;1.00;;;;;;5071350;28;20409;-72
2022/10/13 11:31:13;;;;;;;24.20;12.27;;;13.10;1.00;;;;;;5073957;28;20425;-70
2022/10/13 11:33:38;;;;;;;19.37;12.30;;;13.20;1.00;;;;;;5053106;28;20412;-72
2022/10/13 11:36:46;;;;;;;15.40;11.33;;;13.20;1.00;;;;;;5062135;28;20444;-71
2022/10/13 11:39:38;;;;;;;19.73;13.00;;;13.30;1.00;;;;;;5053984;28;20166;-75
2022/10/13 11:42:25;;;;;;;17.33;12.30;;;13.50;1.00;;;;;;5074697;28;20409;-69
2022/10/13 11:44:51;;;;;;;23.93;13.77;;;13.60;1.00;;;;;;5072144;28;20379;-71
2022/10/13 11:47:38;;;;;;;19.30;12.40;;;13.70;1.00;;;;;;5073717;28;20821;-68
2022/10/13 11:50:33;;;;;;;16.03;11.70;;;13.70;1.00;;;;;;5069078;28;20238;-69
2022/10/13 11:53:06;;;;;;;23.20;12.30;;;13.70;1.00;;;;;;5069277;28;20419;-70
2022/10/13 11:55:52;;;;;;;25.13;12.03;;;13.70;1.00;;;;;;5072787;28;20511;-69
2022/10/13 11:58:21;;;;;;;16.90;12.07;;;13.90;1.00;;;;;;5073358;28;20499;-71
2022/10/13 12:00:56;;;;;;;17.13;12.23;;;13.90;1.00;;;;;;5073587;28;20399;-70
2022/10/13 12:03:27;;;;;;;27.03;14.07;;;14.00;1.00;;;;;;5071367;28;20451;-69
2022/10/13 12:05:56;;;;;;;21.73;12.73;;;14.10;1.00;;;;;;5072843;28;20416;-69
2022/10/13 12:08:23;;;;;;;25.03;13.27;;;14.10;1.00;;;;;;5073326;28;20428;-71
2022/10/13 12:10:55;;;;;;;18.53;12.53;;;14.30;1.00;;;;;;5067176;28;20490;-72
2022/10/13 12:13:27;;;;;;;19.10;11.80;;;14.50;1.00;;;;;;5067157;28;20447;-69
2022/10/13 12:16:05;;;;;;;20.00;12.87;;;14.70;1.00;;;;;;5072759;28;20424;-68
2022/10/13 12:18:39;;;;;;;19.70;11.53;;;15.10;1.00;;;;;;5072938;28;20503;-72
2022/10/13 12:21:16;;;;;;;16.70;11.80;;;15.40;1.00;;;;;;5073498;28;20404;-68
2022/10/13 12:23:42;;;;;;;18.27;11.60;;;15.40;1.00;;;;;;5069916;28;20485;-69
2022/10/13 12:26:28;;;;;;;18.83;12.03;;;15.50;1.00;;;;;;5073375;28;20412;-71
2022/10/13 12:29:01;;;;;;;19.13;11.50;;;15.50;1.00;;;;;;5052946;28;20460;-69
2022/10/13 12:31:41;;;;;;;17.93;11.93;;;15.40;1.00;;;;;;5057084;28;20978;-71
2022/10/13 12:34:18;;;;;;;21.53;11.70;;;15.20;1.00;;;;;;5052379;28;20409;-70
2022/10/13 12:36:50;;;;;;;19.60;11.27;;;15.10;1.00;;;;;;5054602;28;20816;-70
2022/10/13 12:39:18;;;;;;;17.70;11.77;;;15.00;1.00;;;;;;5072124;28;20405;-69
2022/10/13 12:41:46;;;;;;;19.70;12.27;;;14.90;1.00;;;;;;5076453;28;20457;-70
2022/10/13 12:44:15;;;;;;;21.00;13.90;;;14.70;1.00;;;;;;5075815;28;20505;-72
2022/10/13 12:46:43;;;;;;;18.50;12.47;;;14.80;1.00;;;;;;5068331;28;20455;-73
2022/10/13 12:49:27;;;;;;;21.33;15.00;;;14.80;1.00;;;;;;5057249;28;20421;-71
2022/10/13 12:52:04;;;;;;;29.53;14.80;;;14.60;1.00;;;;;;5070058;28;20426;-69
2022/10/13 12:54:33;;;;;;;22.67;13.43;;;14.50;1.00;;;;;;5075003;28;20408;-71
2022/10/13 12:57:04;;;;;;;28.83;16.27;;;14.30;1.00;;;;;;5075561;28;20481;-71
2022/10/13 12:59:30;;;;;;;20.93;14.07;;;14.30;1.00;;;;;;5075577;28;20420;-69
2022/10/13 13:01:59;;;;;;;21.00;13.27;;;14.30;1.00;;;;;;5076741;28;20451;-71
2022/10/13 13:04:29;;;;;;;26.27;13.73;;;14.30;1.00;;;;;;5076068;28;20871;-71
2022/10/13 13:06:57;;;;;;;22.40;15.23;;;14.40;1.00;;;;;;5076418;28;20424;-72
2022/10/13 13:09:33;;;;;;;27.10;14.37;;;14.40;1.00;;;;;;5076825;28;20409;-71
2022/10/13 13:12:05;;;;;;;22.87;14.23;;;14.30;1.00;;;;;;5076242;28;20816;-71